Time;durP1;ratioP1;P1;durP2;ratioP2;P2;SDS_P1;SDS_P2;PMS_P1;PMS_P2;Temp;Humidity;BMP_temperature;BMP_pressure;BME280_temperature;BME280_humidity;BME280_pressure;Samples;Min_cycle;Max_cycle;Signal;HPM_P1;HPM_P2
2022/03/23 00:00:34;;;;;;;7.37;4.60;;;;;;;3.53;41.82;100213.88;5112861;27;39567;-77
2022/03/23 00:03:01;;;;;;;11.57;7.17;;;;;;;3.40;41.88;100207.91;5116057;27;41788;-76
2022/03/23 00:05:29;;;;;;;10.77;6.60;;;;;;;3.42;42.41;100208.78;5150475;27;42735;-76
2022/03/23 00:07:57;;;;;;;8.00;4.97;;;;;;;3.39;42.86;100210.56;5134618;27;43230;-77
2022/03/23 00:10:26;;;;;;;10.37;5.87;;;;;;;3.22;42.70;100193.28;5116360;27;41015;-75
2022/03/23 00:12:57;;;;;;;10.57;6.37;;;;;;;3.27;42.83;100211.56;5099159;27;41883;-74
2022/03/23 00:15:24;;;;;;;12.77;6.07;;;;;;;3.23;42.48;100222.94;5116573;27;43525;-75
2022/03/23 00:17:52;;;;;;;6.23;4.67;;;;;;;3.16;42.59;100214.31;5116220;27;42276;-76
2022/03/23 00:20:19;;;;;;;14.47;7.17;;;;;;;3.12;43.82;100212.59;5112198;28;39622;-76
2022/03/23 00:22:49;;;;;;;9.33;6.83;;;;;;;3.07;43.68;100214.41;5096648;28;20253;-75
2022/03/23 00:25:16;;;;;;;9.20;5.93;;;;;;;2.89;43.25;100196.28;5096014;28;42525;-76
2022/03/23 00:27:45;;;;;;;9.33;6.20;;;;;;;2.98;43.36;100221.47;5078527;28;41829;-75
2022/03/23 00:30:13;;;;;;;9.20;6.13;;;;;;;2.92;43.31;100209.31;5113681;28;40891;-74
2022/03/23 00:32:41;;;;;;;9.00;6.07;;;;;;;2.88;43.93;100212.84;5095362;28;41964;-76
2022/03/23 00:35:09;;;;;;;10.23;6.37;;;;;;;2.83;43.79;100209.44;5095220;28;41850;-76
2022/03/23 00:37:36;;;;;;;10.20;6.67;;;;;;;2.78;43.64;100212.06;5091386;27;42683;-75
2022/03/23 00:40:04;;;;;;;7.77;5.70;;;;;;;2.71;43.65;100205.19;5116239;27;40973;-77
2022/03/23 00:42:32;;;;;;;7.87;5.33;;;;;;;2.71;45.14;100209.53;5098648;27;40171;-74
2022/03/23 00:45:03;;;;;;;8.47;5.83;;;;;;;2.69;45.88;100216.53;5115353;27;43335;-76
2022/03/23 00:47:30;;;;;;;9.50;6.60;;;;;;;2.66;44.87;100222.66;5150622;27;41337;-75
2022/03/23 00:50:00;;;;;;;9.67;5.80;;;;;;;2.63;44.62;100221.81;5131088;27;40911;-75
2022/03/23 00:52:28;;;;;;;10.00;6.13;;;;;;;2.59;44.75;100220.09;5110044;27;42493;-76
2022/03/23 00:54:55;;;;;;;8.70;5.93;;;;;;;2.54;44.47;100225.38;5115579;27;43748;-74
2022/03/23 00:57:23;;;;;;;8.37;5.43;;;;;;;2.51;45.10;100215.78;5098614;27;41649;-76
2022/03/23 00:59:50;;;;;;;9.40;5.87;;;;;;;2.44;46.91;100201.06;5115682;27;41059;-75
2022/03/23 01:02:19;;;;;;;7.43;5.53;;;;;;;2.45;46.28;100212.38;5114741;27;40686;-74
2022/03/23 01:04:47;;;;;;;8.97;5.73;;;;;;;2.40;45.84;100220.25;5131938;27;42495;-76
2022/03/23 01:07:15;;;;;;;10.87;6.20;;;;;;;2.37;46.59;100214.16;5080149;28;42336;-75
2022/03/23 01:09:42;;;;;;;8.57;5.23;;;;;;;2.35;47.46;100211.56;5077450;28;39438;-76
2022/03/23 01:12:12;;;;;;;8.30;5.73;;;;;;;2.33;46.48;100213.34;5094793;28;41880;-76
2022/03/23 01:14:39;;;;;;;9.67;5.53;;;;;;;2.31;48.51;100204.63;5094470;28;43747;-76
2022/03/23 01:17:08;;;;;;;10.17;5.73;;;;;;;2.30;49.69;100204.66;5113191;28;42119;-74
2022/03/23 01:19:37;;;;;;;6.63;4.87;;;;;;;2.16;48.95;100189.06;5077433;28;40969;-76
2022/03/23 01:22:06;;;;;;;8.43;5.80;;;;;;;2.26;49.66;100198.56;5112144;27;41304;-74
2022/03/23 01:24:33;;;;;;;9.63;5.77;;;;;;;2.23;48.50;100206.41;5114630;27;44318;-77
2022/03/23 01:27:02;;;;;;;7.47;5.53;;;;;;;2.20;47.76;100211.69;5115282;27;43093;-75
2022/03/23 01:29:30;;;;;;;6.83;4.33;;;;;;;2.14;47.38;100212.59;5134272;27;41034;-76
2022/03/23 01:31:58;;;;;;;7.73;4.50;;;;;;;2.08;47.71;100207.41;5097549;27;40696;-74
2022/03/23 01:34:25;;;;;;;6.57;4.63;;;;;;;2.10;48.16;100217.88;5097221;27;40909;-74
2022/03/23 01:36:54;;;;;;;6.37;4.73;;;;;;;2.05;47.35;100211.78;5097506;27;41316;-75
2022/03/23 01:39:21;;;;;;;10.00;6.47;;;;;;;2.01;47.71;100207.44;5114893;27;41487;-75
2022/03/23 01:41:49;;;;;;;8.10;4.80;;;;;;;1.96;47.36;100211.84;5114763;27;42768;-76
2022/03/23 01:44:20;;;;;;;8.97;5.30;;;;;;;1.91;47.21;100214.47;5132510;27;43757;-74
2022/03/23 01:47:03;;;;;;;9.53;5.63;;;;;;;1.87;46.75;100217.09;5097952;27;42749;-75
2022/03/23 01:49:33;;;;;;;7.70;5.10;;;;;;;1.80;46.50;100217.16;5114569;27;41824;-75
2022/03/23 01:52:05;;;;;;;7.13;4.80;;;;;;;1.70;46.62;100207.66;5114926;27;42733;-76
2022/03/23 01:54:33;;;;;;;9.93;6.27;;;;;;;1.68;46.65;100219.84;5096097;27;43966;-77
2022/03/23 01:57:03;;;;;;;6.90;4.77;;;;;;;1.65;46.66;100209.41;5097551;27;40937;-76
2022/03/23 01:59:31;;;;;;;6.67;3.87;;;;;;;1.59;46.46;100216.41;5114228;27;41901;-77
2022/03/23 02:01:59;;;;;;;8.30;5.47;;;;;;;1.52;46.52;100212.94;5097547;27;43846;-75
2022/03/23 02:04:27;;;;;;;14.73;6.27;;;;;;;1.52;46.28;100217.28;5114017;27;42530;-75
2022/03/23 02:06:55;;;;;;;7.90;4.90;;;;;;;1.47;46.39;100217.31;5114320;27;42534;-77
2022/03/23 02:09:27;;;;;;;8.27;5.37;;;;;;;1.44;46.40;100217.34;5114114;27;41096;-73
2022/03/23 02:11:57;;;;;;;6.00;4.97;;;;;;;1.30;47.32;100195.63;5110726;27;42505;-75
2022/03/23 02:14:25;;;;;;;8.83;5.20;;;;;;;1.40;46.79;100215.59;5113694;27;42623;-75
2022/03/23 02:16:53;;;;;;;7.70;4.27;;;;;;;1.29;46.65;100212.16;5114485;27;43318;-74
2022/03/23 02:19:22;;;;;;;7.30;4.63;;;;;;;1.35;48.14;100212.16;5114036;27;40966;-75
2022/03/23 02:21:52;;;;;;;7.80;5.13;;;;;;;1.36;48.61;100209.50;5093667;28;40969;-75
2022/03/23 02:24:24;;;;;;;10.40;5.47;;;;;;;1.36;48.19;100203.47;5109172;27;43719;-74
2022/03/23 02:26:53;;;;;;;12.07;6.00;;;;;;;1.34;47.92;100206.06;5108091;28;42349;-75
2022/03/23 02:29:22;;;;;;;6.60;3.80;;;;;;;1.22;48.31;100180.03;5093532;28;41984;-74
2022/03/23 02:31:49;;;;;;;6.77;4.23;;;;;;;1.32;48.73;100201.72;5093780;28;41661;-74
2022/03/23 02:34:18;;;;;;;5.37;3.97;;;;;;;1.31;48.61;100207.81;5075868;28;42783;-76
2022/03/23 02:36:45;;;;;;;7.70;4.70;;;;;;;1.29;48.50;100206.94;5110399;28;42332;-75
2022/03/23 02:39:14;;;;;;;5.80;3.93;;;;;;;1.28;48.58;100210.41;5093072;28;39855;-75
2022/03/23 02:41:41;;;;;;;9.63;4.60;;;;;;;1.26;48.22;100210.41;5110177;27;42099;-75
2022/03/23 02:44:13;;;;;;;6.50;4.20;;;;;;;1.24;48.08;100213.91;5092653;28;43837;-76
2022/03/23 02:46:40;;;;;;;9.87;5.00;;;;;;;1.18;47.82;100219.16;5090157;28;43284;-76
2022/03/23 02:49:09;;;;;;;5.00;4.17;;;;;;;1.13;48.32;100213.06;5075544;28;41109;-75
2022/03/23 02:51:37;;;;;;;6.83;4.90;;;;;;;1.12;47.68;100220.03;5075807;28;41437;-76
2022/03/23 03:02:37;;;;;;;5.93;3.63;;;;;;;0.97;48.40;100220.97;5076242;28;43306;-75
2022/03/23 03:05:05;;;;;;;8.47;4.70;;;;;;;0.96;48.13;100226.19;5089093;27;42090;-75
2022/03/23 03:08:44;;;;;;;7.03;4.30;;;;;;;0.92;47.97;100234.88;5113136;27;41246;-74
2022/03/23 03:10:22;;;;;;;7.63;4.33;;;;;;;0.89;47.70;100233.13;5095729;27;39999;-76
2022/03/23 03:12:52;;;;;;;6.80;3.87;;;;;;;0.87;47.82;100229.66;5095787;27;40786;-75
2022/03/23 03:15:21;;;;;;;6.83;4.07;;;;;;;0.85;47.66;100241.84;5113176;27;42065;-74
2022/03/23 03:17:49;;;;;;;5.77;3.90;;;;;;;0.83;47.56;100242.72;5131050;27;42954;-75
2022/03/23 03:20:17;;;;;;;7.90;3.73;;;;;;;0.74;47.43;100233.16;5131125;27;40985;-75
2022/03/23 03:22:46;;;;;;;5.27;3.90;;;;;;;0.77;47.79;100237.47;5095759;27;41475;-75
2022/03/23 03:25:15;;;;;;;5.60;3.93;;;;;;;0.75;48.34;100229.66;5131129;27;42710;-75
2022/03/23 03:27:43;;;;;;;9.23;4.50;;;;;;;0.74;48.56;100230.56;5113082;27;43823;-74
2022/03/23 03:30:14;;;;;;;6.10;4.47;;;;;;;0.65;48.15;100217.50;5131349;27;40992;-74
2022/03/23 03:32:43;;;;;;;5.83;3.83;;;;;;;0.69;48.07;100240.09;5131434;27;42521;-74
2022/03/23 03:35:11;;;;;;;6.57;4.47;;;;;;;0.67;48.14;100240.09;5112574;27;42770;-74
2022/03/23 03:37:39;;;;;;;7.97;4.10;;;;;;;0.63;48.21;100232.28;5112569;27;42374;-74
2022/03/23 03:40:08;;;;;;;5.73;3.53;;;;;;;0.61;48.30;100239.25;5112101;27;41110;-76
2022/03/23 03:42:35;;;;;;;6.50;3.93;;;;;;;0.58;48.15;100247.94;5110517;28;41810;-74
2022/03/23 03:45:05;;;;;;;5.13;4.00;;;;;;;0.55;47.97;100247.06;5109174;28;41201;-73
2022/03/23 03:47:34;;;;;;;6.60;3.43;;;;;;;0.52;48.07;100242.72;5110605;28;43580;-75
2022/03/23 03:50:01;;;;;;;13.53;5.50;;;;;;;0.50;48.17;100244.44;5091707;28;41945;-76
2022/03/23 03:52:29;;;;;;;7.17;5.13;;;;;;;0.33;48.20;100226.22;5092567;28;41904;-76
2022/03/23 03:54:57;;;;;;;7.30;4.20;;;;;;;0.29;48.37;100227.06;5110161;28;42712;-74
2022/03/23 03:57:25;;;;;;;4.67;3.40;;;;;;;0.42;48.44;100240.97;5111024;28;42344;-75
2022/03/23 03:59:52;;;;;;;5.43;3.80;;;;;;;0.40;49.12;100247.91;5088837;28;40408;-75
2022/03/23 04:02:20;;;;;;;6.10;4.47;;;;;;;0.42;50.11;100243.59;5076042;27;43116;-76
2022/03/23 04:04:49;;;;;;;7.77;4.10;;;;;;;0.42;50.35;100245.31;5105654;27;43255;-75
2022/03/23 04:07:17;;;;;;;8.03;4.63;;;;;;;0.41;49.77;100248.78;5112677;27;42437;-74
2022/03/23 04:09:45;;;;;;;6.20;3.87;;;;;;;0.24;49.77;100233.16;5095677;27;41053;-75
2022/03/23 04:12:12;;;;;;;7.13;4.10;;;;;;;0.38;49.94;100254.00;5093193;27;41074;-74
2022/03/23 04:14:40;;;;;;;6.03;4.00;;;;;;;0.37;49.75;100257.50;5110518;28;42705;-76
2022/03/23 04:17:07;;;;;;;7.53;4.70;;;;;;;0.33;49.77;100257.47;5110593;28;42354;-74
2022/03/23 04:19:35;;;;;;;7.37;4.20;;;;;;;0.19;49.87;100243.56;5091925;28;39915;-75
2022/03/23 04:22:04;;;;;;;7.27;5.00;;;;;;;0.30;49.65;100264.41;5092321;28;41708;-75
2022/03/23 04:24:32;;;;;;;5.73;3.93;;;;;;;0.17;49.77;100236.59;5091916;28;43723;-77
2022/03/23 04:27:00;;;;;;;6.33;3.97;;;;;;;0.24;49.68;100262.69;5092078;28;40986;-76
2022/03/23 04:29:28;;;;;;;5.80;3.83;;;;;;;0.22;49.69;100269.63;5091639;28;39976;-76
2022/03/23 04:31:55;;;;;;;7.23;4.17;;;;;;;0.19;49.75;100267.00;5075293;28;40538;-74
2022/03/23 04:34:23;;;;;;;7.13;4.20;;;;;;;0.19;49.99;100267.00;5092005;28;43765;-76
2022/03/23 04:36:51;;;;;;;6.37;3.73;;;;;;;0.07;50.16;100242.66;5076654;28;42290;-75
2022/03/23 04:39:20;;;;;;;5.93;4.13;;;;;;;0.19;50.44;100268.75;5093102;28;41109;-77
2022/03/23 04:41:47;;;;;;;8.83;4.30;;;;;;;0.09;50.15;100262.66;5092862;28;40700;-76
2022/03/23 04:44:15;;;;;;;6.13;3.67;;;;;;;0.14;50.38;100271.31;5075653;28;42728;-77
2022/03/23 04:46:43;;;;;;;8.80;5.10;;;;;;;0.12;50.45;100273.09;5092492;28;41121;-76
2022/03/23 04:49:11;;;;;;;9.57;4.87;;;;;;;0.09;50.91;100267.88;5095063;28;40018;-76
2022/03/23 04:51:39;;;;;;;8.77;5.07;;;;;;;0.08;50.79;100273.94;5095507;28;40699;-75
2022/03/23 04:54:06;;;;;;;8.43;3.90;;;;;;;0.05;50.49;100271.31;5093767;28;44605;-76
2022/03/23 04:56:35;;;;;;;7.07;4.47;;;;;;;0.03;50.43;100272.16;5095067;28;43204;-75
2022/03/23 04:59:04;;;;;;;7.83;4.43;;;;;;;-0.01;50.43;100273.91;5094613;28;41829;-75
2022/03/23 05:01:32;;;;;;;6.13;4.33;;;;;;;-0.05;50.27;100272.16;5113514;28;41909;-77
2022/03/23 05:03:59;;;;;;;7.77;4.60;;;;;;;-0.07;50.16;100271.28;5102368;27;42847;-76
2022/03/23 05:06:27;;;;;;;5.90;4.67;;;;;;;-0.09;50.20;100275.59;5115155;27;42262;-75
2022/03/23 05:08:54;;;;;;;8.00;4.57;;;;;;;-0.12;50.81;100267.78;5114911;27;40840;-76
2022/03/23 05:11:23;;;;;;;5.90;5.17;;;;;;;-0.25;50.88;100250.41;5098171;27;40861;-74
2022/03/23 05:13:52;;;;;;;7.07;4.33;;;;;;;-0.16;50.89;100264.31;5114926;27;44323;-77
2022/03/23 05:16:20;;;;;;;7.90;4.70;;;;;;;-0.17;50.58;100270.38;5139515;27;43032;-76
2022/03/23 05:18:48;;;;;;;5.93;3.87;;;;;;;-0.29;50.61;100253.84;5112658;27;40040;-77
2022/03/23 05:21:15;;;;;;;5.93;4.17;;;;;;;-0.17;50.57;100274.72;5115142;27;40516;-76
2022/03/23 05:23:43;;;;;;;6.60;3.97;;;;;;;-0.16;50.34;100273.88;5084615;27;41089;-76
2022/03/23 05:26:11;;;;;;;3.50;3.13;;;;;;;-0.16;50.13;100271.25;5085892;27;42336;-75
2022/03/23 05:28:38;;;;;;;7.47;3.83;;;;;;;-0.15;50.08;100273.88;5129726;27;40930;-77
2022/03/23 05:31:07;;;;;;;4.33;3.40;;;;;;;-0.10;50.58;100279.06;5097736;27;40874;-76
2022/03/23 05:33:35;;;;;;;5.40;4.27;;;;;;;-0.09;50.42;100268.66;5098194;27;43989;-77
2022/03/23 05:36:03;;;;;;;8.57;3.80;;;;;;;-0.14;50.28;100261.72;5115273;27;43285;-75
2022/03/23 05:38:31;;;;;;;3.97;3.20;;;;;;;-0.05;50.02;100273.03;5114353;27;39959;-74
2022/03/23 05:40:58;;;;;;;5.83;3.47;;;;;;;-0.05;49.98;100269.56;5115787;27;41931;-75
2022/03/23 05:43:26;;;;;;;6.67;3.83;;;;;;;0.01;50.10;100274.75;5114486;27;41941;-74
2022/03/23 05:45:54;;;;;;;5.77;4.00;;;;;;;0.07;49.99;100280.00;5114644;27;42214;-76
2022/03/23 05:48:23;;;;;;;6.47;4.20;;;;;;;0.00;50.88;100262.63;5051739;27;1272561;-76
2022/03/23 05:50:51;;;;;;;7.27;3.77;;;;;;;0.17;50.62;100281.75;5115617;27;42714;-77
2022/03/23 05:53:19;;;;;;;8.50;4.60;;;;;;;0.10;50.57;100263.53;5099466;27;41813;-76
2022/03/23 05:55:47;;;;;;;7.63;4.10;;;;;;;0.29;50.35;100283.50;5097957;28;42515;-75
2022/03/23 05:58:14;;;;;;;4.83;3.33;;;;;;;0.35;50.34;100286.16;5122004;27;41800;-74
2022/03/23 06:00:42;;;;;;;8.57;3.73;;;;;;;0.42;51.62;100281.81;5107596;27;41222;-74
2022/03/23 06:03:10;;;;;;;8.07;4.07;;;;;;;0.51;51.74;100284.41;5111327;27;41433;-76
2022/03/23 06:05:39;;;;;;;6.73;4.23;;;;;;;0.58;51.36;100278.34;5133626;27;42459;-76
2022/03/23 06:08:07;;;;;;;6.20;4.43;;;;;;;0.66;51.14;100276.59;5106421;27;41949;-78
2022/03/23 06:10:35;;;;;;;7.23;4.20;;;;;;;0.60;50.85;100267.06;5130703;27;41312;-76
2022/03/23 06:13:03;;;;;;;6.10;3.80;;;;;;;0.78;50.66;100289.63;5096973;27;45341;-75
2022/03/23 06:15:30;;;;;;;6.47;3.67;;;;;;;0.85;50.37;100294.00;5115517;27;43188;-77
2022/03/23 06:18:05;;;;;;;7.30;4.10;;;;;;;0.92;50.19;100300.06;5097114;27;39858;-77
2022/03/23 06:20:34;;;;;;;5.23;3.30;;;;;;;1.01;50.23;100300.06;5115382;27;42887;-74
2022/03/23 06:23:04;;;;;;;4.87;3.43;;;;;;;1.10;50.13;100299.19;5097770;27;42424;-74
2022/03/23 06:25:32;;;;;;;7.00;4.20;;;;;;;1.10;49.91;100299.19;5119621;27;43106;-76
2022/03/23 06:28:00;;;;;;;8.20;4.90;;;;;;;1.31;50.33;100300.03;5135797;27;41906;-77
2022/03/23 06:30:28;;;;;;;7.33;4.70;;;;;;;1.63;49.82;100307.75;5128425;27;41907;-77
2022/03/23 06:32:55;;;;;;;6.30;4.23;;;;;;;2.04;49.20;100298.88;5123038;27;42802;-76
2022/03/23 06:35:26;;;;;;;8.30;4.83;;;;;;;2.60;48.59;100323.84;5114202;27;42984;-77
2022/03/23 06:37:53;;;;;;;9.10;5.30;;;;;;;2.68;48.60;100329.88;5097566;27;40062;-75
2022/03/23 06:40:22;;;;;;;10.17;6.23;;;;;;;2.70;49.52;100322.88;5126317;27;41898;-75
2022/03/23 06:42:50;;;;;;;8.90;5.67;;;;;;;2.81;49.90;100318.44;5113237;27;43489;-76
2022/03/23 06:45:18;;;;;;;9.47;5.17;;;;;;;2.98;49.50;100308.69;5113423;27;43177;-75
2022/03/23 06:47:45;;;;;;;7.70;5.40;;;;;;;3.32;49.16;100324.09;5132628;27;41866;-75
2022/03/23 06:50:13;;;;;;;8.50;5.00;;;;;;;3.57;48.87;100326.47;5110066;27;41992;-78
2022/03/23 06:52:41;;;;;;;8.87;6.17;;;;;;;3.80;48.71;100328.81;5132789;27;43800;-77
2022/03/23 06:55:09;;;;;;;9.53;5.23;;;;;;;3.95;49.11;100325.16;5132724;27;43564;-76
2022/03/23 06:57:38;;;;;;;8.67;5.90;;;;;;;4.17;49.32;100318.75;5133083;27;40894;-77
2022/03/23 07:00:13;;;;;;;8.43;5.60;;;;;;;4.62;48.95;100325.09;5113692;27;41784;-78
2022/03/23 07:02:41;;;;;;;8.20;5.23;;;;;;;5.38;47.43;100336.97;5096032;27;43377;-75
2022/03/23 07:05:09;;;;;;;7.67;5.77;;;;;;;6.18;46.42;100340.75;5112844;27;43578;-75
2022/03/23 07:07:37;;;;;;;13.97;7.37;;;;;;;6.99;45.64;100337.13;5131436;27;41554;-75
2022/03/23 07:10:05;;;;;;;8.70;5.93;;;;;;;8.08;44.01;100349.16;5112955;27;42776;-75
2022/03/23 07:12:33;;;;;;;12.20;6.53;;;;;;;9.60;41.50;100354.94;5131957;27;42719;-75
2022/03/23 07:15:02;;;;;;;8.80;5.70;;;;;;;11.39;38.16;100339.22;5113359;27;41984;-76
2022/03/23 07:17:29;;;;;;;7.33;6.20;;;;;;;13.70;34.72;100400.25;5132551;27;40826;-76
2022/03/23 07:19:57;;;;;;;8.67;6.23;;;;;;;15.62;31.95;100416.44;5131417;27;41541;-78
2022/03/23 07:22:25;;;;;;;8.17;6.80;;;;;;;17.08;30.25;100434.16;5131357;27;42916;-77
2022/03/23 07:24:52;;;;;;;8.67;6.43;;;;;;;18.31;28.26;100440.19;5113275;27;41179;-72
2022/03/23 07:27:20;;;;;;;13.20;7.73;;;;;;;19.46;26.76;100446.25;5113601;27;40278;-73
2022/03/23 07:29:48;;;;;;;11.03;7.50;;;;;;;20.46;25.67;100458.44;5130460;27;41939;-73
2022/03/23 07:32:17;;;;;;;8.90;7.47;;;;;;;21.44;24.53;100461.25;5129816;27;42572;-74
2022/03/23 07:34:46;;;;;;;8.53;7.13;;;;;;;22.47;23.56;100450.81;5145852;27;42956;-74
2022/03/23 07:37:14;;;;;;;9.53;8.47;;;;;;;23.24;22.55;100476.34;5130930;27;40946;-74
2022/03/23 07:39:49;;;;;;;9.03;8.13;;;;;;;23.62;22.02;100467.50;5090857;28;41596;-74
2022/03/23 07:42:17;;;;;;;8.07;7.27;;;;;;;23.80;21.26;100488.47;5092974;28;42031;-74
2022/03/23 07:44:44;;;;;;;10.93;7.70;;;;;;;24.04;21.25;100483.50;5102859;27;41246;-75
2022/03/23 07:47:12;;;;;;;10.83;8.07;;;;;;;24.90;19.75;100468.13;5092395;28;40769;-74
2022/03/23 07:49:43;;;;;;;8.77;7.87;;;;;;;26.53;18.25;100497.97;5101822;27;41601;-74
2022/03/23 07:52:11;;;;;;;8.73;7.93;;;;;;;27.96;17.46;100483.53;5096173;27;42908;-74
2022/03/23 07:54:39;;;;;;;9.83;8.87;;;;;;;29.41;16.15;100509.00;5094358;27;41970;-77
2022/03/23 07:57:07;;;;;;;9.00;8.20;;;;;;;30.59;15.68;100505.00;5113487;27;41896;-75
2022/03/23 07:59:35;;;;;;;7.70;7.00;;;;;;;30.56;15.33;100513.56;5112716;27;41921;-76
2022/03/23 08:02:06;;;;;;;9.30;8.40;;;;;;;28.59;15.89;100505.53;5128242;27;42482;-77
2022/03/23 08:04:34;;;;;;;8.97;8.13;;;;;;;27.06;17.02;100506.00;5112115;27;44537;-77
2022/03/23 08:07:04;;;;;;;8.57;7.77;;;;;;;26.58;17.28;100493.75;5096542;27;42244;-77
2022/03/23 08:09:33;;;;;;;8.40;7.60;;;;;;;25.95;17.40;100488.44;5112087;27;41956;-77
2022/03/23 08:12:01;;;;;;;10.03;8.00;;;;;;;24.34;18.42;100482.53;5096932;27;41828;-82
2022/03/23 08:14:28;;;;;;;8.47;7.37;;;;;;;22.75;19.37;100484.38;5112707;27;42491;-80
2022/03/23 08:16:56;;;;;;;9.30;8.07;;;;;;;21.39;20.66;100481.47;5113564;27;40679;-78
2022/03/23 08:19:24;;;;;;;8.77;7.73;;;;;;;20.31;21.85;100472.06;5096280;27;40532;-81
2022/03/23 08:21:53;;;;;;;8.63;7.70;;;;;;;20.68;21.92;100448.56;5132479;27;43504;-77
2022/03/23 08:24:22;;;;;;;9.03;7.87;;;;;;;22.55;20.67;100472.59;5116261;27;41207;-75
2022/03/23 08:26:50;;;;;;;9.67;7.47;;;;;;;23.83;19.59;100466.56;5117895;27;41971;-81
2022/03/23 08:29:18;;;;;;;9.43;8.53;;;;;;;25.37;18.53;100477.06;5116914;27;42220;-77
2022/03/23 08:31:45;;;;;;;9.37;8.17;;;;;;;26.68;17.54;100478.22;5135644;27;42857;-74
2022/03/23 08:34:13;;;;;;;9.97;7.93;;;;;;;25.92;18.08;100475.16;5114415;27;42296;-73
2022/03/23 08:36:41;;;;;;;8.57;7.63;;;;;;;25.82;18.40;100482.53;5134887;27;41766;-74
2022/03/23 08:39:08;;;;;;;9.37;8.47;;;;;;;27.20;16.92;100475.44;5134305;27;41583;-75
2022/03/23 08:41:37;;;;;;;9.40;8.10;;;;;;;28.88;15.80;100485.94;5134698;27;43718;-75
2022/03/23 08:44:06;;;;;;;9.93;8.93;;;;;;;30.47;14.11;100500.13;5115869;27;42353;-76
2022/03/23 08:46:33;;;;;;;9.18;8.43;;;;;;;31.84;13.98;100478.56;5099009;27;40977;-79
2022/03/23 08:49:01;;;;;;;8.32;7.53;;;;;;;33.36;13.00;100493.59;5115789;27;41771;-79
2022/03/23 08:51:29;;;;;;;8.90;8.20;;;;;;;34.51;11.95;100513.59;5116420;27;43099;-78
2022/03/23 08:53:56;;;;;;;9.13;8.32;;;;;;;35.25;11.54;100505.09;5133612;27;42426;-77
2022/03/23 08:56:25;;;;;;;8.10;7.47;;;;;;;35.71;11.29;100512.34;5099095;27;39797;-75
2022/03/23 08:58:54;;;;;;;9.18;8.38;;;;;;;35.84;11.30;100497.69;5115392;27;42736;-76
2022/03/23 09:01:22;;;;;;;8.30;7.60;;;;;;;36.03;10.79;100501.38;5106474;27;41629;-77
2022/03/23 09:03:50;;;;;;;9.85;8.95;;;;;;;36.56;10.76;100491.66;5131568;27;43878;-79
2022/03/23 09:06:17;;;;;;;9.43;8.60;;;;;;;35.84;10.24;100487.50;5134620;27;40908;-75
2022/03/23 09:08:45;;;;;;;9.40;8.63;;;;;;;34.54;11.39;100480.16;5117553;27;41111;-74
2022/03/23 09:11:12;;;;;;;10.27;9.27;;;;;;;34.11;11.83;100487.09;5118606;27;42843;-82
2022/03/23 09:13:40;;;;;;;10.25;9.35;;;;;;;34.52;11.75;100489.66;5134435;27;42516;-83
2022/03/23 09:16:09;;;;;;;10.00;9.10;;;;;;;35.74;10.86;100492.63;5135199;27;40904;-82
2022/03/23 09:18:37;;;;;;;9.65;8.85;;;;;;;37.19;9.98;100447.31;5098323;27;42734;-85
2022/03/23 09:21:04;;;;;;;9.10;8.40;;;;;;;38.58;9.59;100490.44;5135131;27;43460;-81
2022/03/23 09:23:32;;;;;;;7.75;7.07;;;;;;;37.98;9.64;100490.50;5166718;27;43578;-81
2022/03/23 09:26:01;;;;;;;9.07;8.27;;;;;;;36.88;10.24;100477.78;5134569;27;41051;-82
2022/03/23 09:28:28;;;;;;;9.10;8.30;;;;;;;36.04;10.32;100481.00;5116088;27;41772;-84
2022/03/23 09:30:56;;;;;;;10.02;9.13;;;;;;;35.11;11.00;100462.09;5098211;27;43680;-84
2022/03/23 09:33:26;;;;;;;8.27;7.57;;;;;;;34.80;10.92;100481.22;5125813;27;43200;-78
2022/03/23 09:35:53;;;;;;;9.60;8.70;;;;;;;33.67;11.23;100460.09;5134051;27;40807;-82
2022/03/23 09:38:21;;;;;;;9.67;8.33;;;;;;;33.11;11.95;100460.25;5116415;27;42520;-86
2022/03/23 09:40:51;;;;;;;9.38;8.48;;;;;;;33.92;11.26;100479.63;5132455;27;42785;-77
2022/03/23 09:43:22;;;;;;;9.15;8.35;;;;;;;33.52;11.77;100469.34;5098120;27;41259;-77
2022/03/23 09:45:52;;;;;;;10.30;9.37;;;;;;;32.62;12.28;100438.38;5113247;27;40924;-80
2022/03/23 09:48:21;;;;;;;8.70;8.00;;;;;;;32.59;12.64;100460.72;5125617;27;41556;-79
2022/03/23 09:50:53;;;;;;;9.40;8.50;;;;;;;32.61;12.62;100459.47;5126580;27;43415;-78
2022/03/23 09:53:23;;;;;;;10.53;9.53;;;;;;;32.83;12.25;100455.66;5132602;27;41480;-78
2022/03/23 09:55:52;;;;;;;10.40;9.40;;;;;;;32.23;12.43;100439.78;5114133;27;41183;-79
2022/03/23 09:58:20;;;;;;;10.20;9.20;;;;;;;31.63;12.65;100453.84;5104975;27;40045;-78
2022/03/23 10:00:48;;;;;;;9.60;8.77;;;;;;;31.64;12.63;100448.22;5112224;27;42674;-76
2022/03/23 10:04:05;;;;;;;9.87;8.90;;;;;;;31.32;12.04;100456.84;5112843;27;42441;-76
2022/03/23 10:07:00;;;;;;;9.37;8.47;;;;;;;30.56;13.31;100439.72;5114921;27;40134;-75
2022/03/23 10:10:12;;;;;;;9.17;8.33;;;;;;;30.70;13.00;100435.31;5098043;28;42602;-75
2022/03/23 10:13:26;;;;;;;9.50;8.60;;;;;;;30.90;13.47;100441.94;5092526;28;42015;-75
2022/03/23 10:16:45;;;;;;;9.77;8.87;;;;;;;31.45;13.31;100429.63;5094394;27;41450;-75
2022/03/23 10:19:13;;;;;;;9.60;8.70;;;;;;;31.16;13.41;100405.88;5131159;27;41805;-75
2022/03/23 10:21:41;;;;;;;9.30;8.40;;;;;;;31.34;13.41;100422.75;5138038;27;42287;-75
2022/03/23 10:24:33;;;;;;;10.07;9.07;;;;;;;32.08;12.49;100436.22;5131726;27;42499;-75
2022/03/23 10:27:07;;;;;;;9.73;8.73;;;;;;;33.42;11.58;100424.06;5130016;27;42953;-75
2022/03/23 10:29:41;;;;;;;10.00;9.00;;;;;;;34.28;11.28;100430.63;5131508;27;40661;-75
2022/03/23 10:32:11;;;;;;;9.82;8.93;;;;;;;35.38;9.91;100432.56;5117336;27;41695;-76
2022/03/23 10:34:45;;;;;;;9.65;8.85;;;;;;;35.52;9.83;100438.84;5109348;27;41898;-75
2022/03/23 10:37:14;;;;;;;9.77;8.90;;;;;;;35.65;10.64;100427.75;5118439;27;42144;-75
2022/03/23 10:39:43;;;;;;;9.40;8.60;;;;;;;35.43;10.73;100420.88;5097396;27;40495;-75
2022/03/23 10:42:15;;;;;;;9.75;8.75;;;;;;;35.40;10.65;100415.81;5122081;27;40902;-75
2022/03/23 10:44:44;;;;;;;10.57;9.57;;;;;;;35.80;10.28;100425.56;5148070;27;42314;-75
2022/03/23 10:47:25;;;;;;;9.98;9.07;;;;;;;36.67;10.48;100418.28;5131865;27;42295;-75
2022/03/23 10:49:53;;;;;;;9.32;8.50;;;;;;;37.78;10.05;100429.09;5131011;27;40893;-76
2022/03/23 10:52:22;;;;;;;9.45;8.65;;;;;;;39.09;9.59;100419.63;5131588;27;42996;-76
2022/03/23 10:55:00;;;;;;;9.13;8.40;;;;;;;40.22;8.01;100430.72;5113287;27;43855;-76
2022/03/23 10:58:07;;;;;;;8.90;8.18;;;;;;;41.17;7.61;100434.47;5129733;27;42374;-76
2022/03/23 11:00:37;;;;;;;8.57;7.85;;;;;;;42.33;7.77;100422.88;5098406;27;39813;-76
2022/03/23 11:03:09;;;;;;;8.45;7.38;;;;;;;43.28;6.91;100416.25;5128571;27;42298;-76
2022/03/23 11:05:38;;;;;;;7.57;6.90;;;;;;;44.04;6.27;100416.47;5114329;27;43361;-76
2022/03/23 11:08:08;;;;;;;8.00;7.40;;;;;;;44.59;6.51;100396.06;5131145;27;41765;-76
2022/03/23 11:16:13;;;;;;;7.00;6.40;;;;;;;44.90;5.74;100408.00;5132166;27;42563;-76
2022/03/23 11:18:41;;;;;;;6.53;6.03;;;;;;;43.93;6.49;100396.06;5130851;27;43494;-76
2022/03/23 11:21:09;;;;;;;6.47;6.00;;;;;;;44.22;6.55;100399.16;5130986;27;40787;-76
2022/03/23 11:23:43;;;;;;;6.15;5.65;;;;;;;45.14;6.06;100385.00;5148678;27;41818;-76
2022/03/23 11:26:12;;;;;;;6.55;6.07;;;;;;;45.95;5.48;100390.16;5118161;27;41439;-77
2022/03/23 11:28:43;;;;;;;6.30;5.80;;;;;;;46.63;5.16;100392.88;5113737;27;44020;-78
2022/03/23 11:31:15;;;;;;;6.20;5.70;;;;;;;47.01;5.33;100380.69;5111306;27;41956;-78
2022/03/23 11:33:51;;;;;;;6.65;5.57;;;;;;;47.44;4.45;100380.69;5130663;27;42806;-77
2022/03/23 11:36:20;;;;;;;5.85;5.45;;;;;;;47.74;4.32;100376.59;5085862;28;41722;-78
2022/03/23 11:38:51;;;;;;;6.65;6.10;;;;;;;47.75;4.58;100372.66;5076535;28;42993;-78
2022/03/23 11:41:21;;;;;;;5.93;5.53;;;;;;;47.21;4.68;100370.34;5130016;27;41039;-75
2022/03/23 11:43:48;;;;;;;6.57;6.07;;;;;;;44.69;5.15;100372.81;5113977;27;41383;-75
2022/03/23 11:46:22;;;;;;;7.50;6.80;;;;;;;42.49;6.29;100357.84;5140280;27;43752;-75
2022/03/23 11:49:07;;;;;;;7.80;6.22;;;;;;;41.83;6.37;100346.16;5163776;27;42450;-75
2022/03/23 11:52:01;;;;;;;6.68;6.07;;;;;;;42.95;5.73;100343.06;5122529;27;40062;-75
2022/03/23 11:57:20;;;;;;;6.38;5.80;;;;;;;44.48;4.96;100343.28;5121932;27;41574;-77